Time;durP1;ratioP1;P1;durP2;ratioP2;P2;SDS_P1;SDS_P2;PMS_P1;PMS_P2;Temp;Humidity;BMP_temperature;BMP_pressure;BME280_temperature;BME280_humidity;BME280_pressure;Samples;Min_cycle;Max_cycle;Signal;HPM_P1;HPM_P2
2022/01/31 00:01:46;;;;;;;15.85;3.45;;;5.50;99.90;;;;;;5041181;28;20029;-61
2022/01/31 00:04:11;;;;;;;12.65;2.85;;;5.50;99.90;;;;;;5041593;28;20490;-61
2022/01/31 00:06:37;;;;;;;16.83;4.30;;;5.50;99.90;;;;;;5039708;28;20048;-61
2022/01/31 00:09:03;;;;;;;10.00;2.88;;;5.50;99.90;;;;;;5040015;28;20083;-63
2022/01/31 00:11:29;;;;;;;18.00;4.13;;;5.50;99.90;;;;;;5037448;28;20060;-61
2022/01/31 00:14:03;;;;;;;22.42;3.22;;;5.50;99.90;;;;;;5040979;28;20029;-61
2022/01/31 00:16:32;;;;;;;13.32;2.95;;;5.40;99.90;;;;;;5040649;28;20052;-61
2022/01/31 00:18:59;;;;;;;16.83;3.03;;;5.40;99.90;;;;;;5038843;28;20030;-61
2022/01/31 00:21:26;;;;;;;18.80;3.05;;;5.40;99.90;;;;;;5040196;28;20064;-61
2022/01/31 00:23:52;;;;;;;11.60;2.83;;;5.40;99.90;;;;;;5041491;28;20037;-61
2022/01/31 00:26:17;;;;;;;20.67;4.03;;;5.40;99.90;;;;;;5037556;28;20048;-61
2022/01/31 00:28:43;;;;;;;24.27;3.45;;;5.30;99.90;;;;;;5039565;28;20488;-61
2022/01/31 00:31:08;;;;;;;11.13;4.35;;;5.30;99.90;;;;;;5037115;28;20029;-61
2022/01/31 00:33:34;;;;;;;19.08;3.83;;;5.30;99.90;;;;;;5039157;28;20539;-61
2022/01/31 00:36:00;;;;;;;19.73;4.45;;;5.20;99.90;;;;;;5037961;28;20465;-61
2022/01/31 00:38:25;;;;;;;14.77;3.90;;;5.20;99.90;;;;;;5038211;28;20060;-61
2022/01/31 00:40:51;;;;;;;24.92;4.65;;;5.20;99.90;;;;;;5039557;28;20132;-62
2022/01/31 00:43:19;;;;;;;13.32;3.85;;;5.10;99.90;;;;;;5048680;28;20516;-60
2022/01/31 00:45:57;;;;;;;14.88;4.22;;;5.00;99.90;;;;;;5040907;28;20041;-60
2022/01/31 00:48:25;;;;;;;18.13;4.78;;;5.00;99.90;;;;;;5037353;28;20104;-61
2022/01/31 00:50:51;;;;;;;17.30;3.85;;;5.00;99.90;;;;;;5039529;28;20032;-61
2022/01/31 00:53:16;;;;;;;14.98;3.88;;;5.00;99.90;;;;;;5041365;28;20059;-61
2022/01/31 00:55:42;;;;;;;16.17;3.53;;;4.90;99.90;;;;;;5035439;28;20041;-61
2022/01/31 00:58:08;;;;;;;25.40;4.20;;;4.90;99.90;;;;;;5038685;28;20033;-62
2022/01/31 01:00:34;;;;;;;13.60;3.92;;;5.00;99.90;;;;;;5039159;28;20473;-61
2022/01/31 01:02:59;;;;;;;15.20;4.22;;;4.90;99.90;;;;;;5041083;28;20061;-61
2022/01/31 01:05:25;;;;;;;14.75;3.90;;;4.90;99.90;;;;;;5040874;28;20060;-61
2022/01/31 01:07:51;;;;;;;22.92;5.03;;;4.90;99.90;;;;;;5040393;28;20033;-61
2022/01/31 01:10:18;;;;;;;28.48;4.65;;;5.00;99.90;;;;;;5037743;28;20390;-61
2022/01/31 01:12:45;;;;;;;15.98;5.57;;;5.00;99.90;;;;;;5037537;28;20037;-60
2022/01/31 01:15:12;;;;;;;20.05;5.40;;;5.00;99.90;;;;;;5037646;28;20032;-61
2022/01/31 01:17:38;;;;;;;24.90;5.35;;;5.00;99.90;;;;;;5039443;28;20442;-60
2022/01/31 01:20:05;;;;;;;15.15;4.18;;;5.00;99.90;;;;;;5038963;28;20037;-61
2022/01/31 01:22:31;;;;;;;19.15;4.82;;;5.00;99.90;;;;;;5039040;28;20037;-61
2022/01/31 01:24:57;;;;;;;18.33;5.53;;;5.00;99.90;;;;;;5043584;28;20388;-62
2022/01/31 01:27:23;;;;;;;10.85;3.78;;;5.00;99.90;;;;;;5041372;28;20043;-62
2022/01/31 01:29:49;;;;;;;22.63;4.07;;;5.00;99.90;;;;;;5043113;28;20476;-60
2022/01/31 01:32:15;;;;;;;19.45;3.35;;;5.00;99.90;;;;;;5041359;28;20064;-63
2022/01/31 01:34:41;;;;;;;17.42;5.03;;;5.00;99.90;;;;;;5043965;28;20071;-60
2022/01/31 01:37:07;;;;;;;9.43;3.67;;;5.00;99.90;;;;;;5041720;28;20098;-60
2022/01/31 01:39:32;;;;;;;11.07;4.15;;;5.10;99.90;;;;;;5042958;28;20078;-60
2022/01/31 01:41:58;;;;;;;14.88;3.58;;;5.00;99.90;;;;;;5046399;28;20028;-61
2022/01/31 01:44:44;;;;;;;14.27;4.43;;;5.10;99.90;;;;;;5043174;28;20029;-63
2022/01/31 01:47:09;;;;;;;12.18;3.95;;;5.10;99.90;;;;;;5040703;28;20044;-61
2022/01/31 01:49:35;;;;;;;15.85;3.03;;;5.10;99.90;;;;;;5048740;28;20036;-60
2022/01/31 01:52:02;;;;;;;14.50;4.22;;;5.10;99.90;;;;;;5042216;28;20068;-61
2022/01/31 01:54:28;;;;;;;15.60;3.58;;;5.20;99.90;;;;;;5040259;28;20045;-61
2022/01/31 01:56:53;;;;;;;10.02;3.08;;;5.20;99.90;;;;;;5041749;28;20033;-61
2022/01/31 01:59:19;;;;;;;12.68;3.05;;;5.20;99.90;;;;;;5043074;28;20025;-62
2022/01/31 02:01:45;;;;;;;10.32;3.20;;;5.20;99.90;;;;;;5039137;28;20037;-62
2022/01/31 02:04:10;;;;;;;11.02;2.72;;;5.30;99.90;;;;;;5043780;28;20025;-60
2022/01/31 02:06:36;;;;;;;10.48;3.30;;;5.30;99.90;;;;;;5039153;28;20546;-60
2022/01/31 02:09:03;;;;;;;7.57;2.58;;;5.30;99.90;;;;;;5039971;28;20037;-61
2022/01/31 02:11:29;;;;;;;5.88;2.58;;;5.40;99.90;;;;;;5041889;28;20029;-61
2022/01/31 02:13:54;;;;;;;13.73;3.17;;;5.30;99.90;;;;;;5043985;28;20120;-61
2022/01/31 02:16:20;;;;;;;16.30;2.55;;;5.50;99.90;;;;;;5043121;28;20086;-62
2022/01/31 02:18:50;;;;;;;11.45;2.95;;;5.50;99.90;;;;;;5040406;28;20120;-61
2022/01/31 02:21:17;;;;;;;13.38;2.55;;;5.60;99.90;;;;;;5042807;28;20033;-62
2022/01/31 02:23:43;;;;;;;21.88;3.67;;;5.70;99.90;;;;;;5038602;28;20064;-61
2022/01/31 02:26:09;;;;;;;13.93;2.03;;;5.80;99.90;;;;;;5043694;28;20025;-62
2022/01/31 02:28:37;;;;;;;20.60;2.08;;;5.90;99.90;;;;;;5043225;28;20033;-62
2022/01/31 02:31:04;;;;;;;16.50;2.35;;;6.00;99.90;;;;;;5040945;28;20064;-62
2022/01/31 02:33:30;;;;;;;21.60;2.50;;;6.10;99.90;;;;;;5041705;28;20025;-62
2022/01/31 02:36:00;;;;;;;20.10;2.17;;;6.20;99.90;;;;;;5040521;28;20059;-61
2022/01/31 02:38:27;;;;;;;15.23;2.60;;;6.20;99.90;;;;;;5041167;28;20057;-61
2022/01/31 02:40:53;;;;;;;20.25;2.47;;;6.20;99.90;;;;;;5041783;28;20048;-63
2022/01/31 02:43:26;;;;;;;23.63;3.03;;;6.30;99.90;;;;;;5046787;28;20112;-63
2022/01/31 02:45:52;;;;;;;11.48;2.30;;;6.20;99.90;;;;;;5041131;28;20524;-61
2022/01/31 02:48:21;;;;;;;18.05;2.45;;;6.30;99.90;;;;;;5042292;28;20033;-62
2022/01/31 02:50:47;;;;;;;14.70;2.05;;;6.30;99.90;;;;;;5039785;28;20037;-61
2022/01/31 02:53:21;;;;;;;11.95;1.90;;;6.30;99.90;;;;;;5043000;28;20036;-61
2022/01/31 02:55:47;;;;;;;12.93;2.55;;;6.30;99.90;;;;;;5039135;28;20512;-62
2022/01/31 02:58:14;;;;;;;12.60;2.10;;;6.30;99.90;;;;;;5042784;28;20029;-61
2022/01/31 03:00:40;;;;;;;16.92;2.92;;;6.30;99.90;;;;;;5038624;28;20052;-61
2022/01/31 03:03:06;;;;;;;18.35;1.95;;;6.30;99.90;;;;;;5042501;28;20199;-61
2022/01/31 03:05:32;;;;;;;10.63;1.55;;;6.40;99.90;;;;;;5039498;28;20042;-60
2022/01/31 03:07:58;;;;;;;10.55;1.67;;;6.40;99.90;;;;;;5041560;28;20038;-60
2022/01/31 03:10:24;;;;;;;9.10;2.13;;;6.40;99.90;;;;;;5040217;28;20025;-63
2022/01/31 03:12:50;;;;;;;19.17;1.50;;;6.50;99.90;;;;;;5040295;28;20742;-62
2022/01/31 03:15:16;;;;;;;8.45;1.48;;;6.50;99.90;;;;;;5041862;28;20037;-60
2022/01/31 03:17:46;;;;;;;12.35;1.73;;;6.50;99.90;;;;;;5038463;28;20033;-61
2022/01/31 03:20:12;;;;;;;11.95;2.00;;;6.50;99.90;;;;;;5042241;28;20029;-61
2022/01/31 03:22:38;;;;;;;11.90;2.08;;;6.50;99.90;;;;;;5038522;28;20025;-62
2022/01/31 03:25:04;;;;;;;11.88;1.17;;;6.60;99.90;;;;;;5041731;28;20044;-61
2022/01/31 03:27:29;;;;;;;8.43;1.42;;;6.60;99.90;;;;;;5040757;28;20044;-61
2022/01/31 03:29:55;;;;;;;16.25;2.38;;;6.60;99.90;;;;;;5039911;28;20455;-61
2022/01/31 03:32:20;;;;;;;8.15;1.83;;;6.70;99.90;;;;;;5040024;28;20026;-61
2022/01/31 03:34:46;;;;;;;9.10;2.22;;;6.60;99.90;;;;;;5041485;28;20049;-62
2022/01/31 03:37:12;;;;;;;6.70;1.40;;;6.60;99.90;;;;;;5039042;28;20033;-62
2022/01/31 03:39:37;;;;;;;9.68;1.40;;;6.50;99.90;;;;;;5041738;28;20045;-61
2022/01/31 03:42:03;;;;;;;9.73;1.67;;;6.50;99.90;;;;;;5044558;28;20511;-62
2022/01/31 03:44:30;;;;;;;18.80;2.33;;;6.60;99.90;;;;;;5039258;28;20416;-60
2022/01/31 03:46:56;;;;;;;8.70;1.95;;;6.50;99.90;;;;;;5040484;28;20046;-61
2022/01/31 03:49:22;;;;;;;13.38;2.75;;;6.60;99.90;;;;;;5039932;28;20063;-61
2022/01/31 03:51:48;;;;;;;11.35;2.20;;;6.50;99.90;;;;;;5039677;28;20462;-60
2022/01/31 03:54:13;;;;;;;17.85;2.92;;;6.60;99.90;;;;;;5041156;28;20109;-62
2022/01/31 03:56:39;;;;;;;23.35;2.92;;;6.50;99.90;;;;;;5036469;28;20120;-60
2022/01/31 03:59:05;;;;;;;13.80;3.33;;;6.60;99.90;;;;;;5041753;28;20033;-61
2022/01/31 04:01:31;;;;;;;19.92;1.90;;;6.60;99.90;;;;;;5037957;28;20038;-61
2022/01/31 04:03:56;;;;;;;16.17;2.55;;;6.70;99.90;;;;;;5039458;28;20041;-61
2022/01/31 04:06:23;;;;;;;11.02;2.53;;;6.70;99.90;;;;;;5039243;28;20032;-61
2022/01/31 04:08:50;;;;;;;7.10;1.50;;;6.70;99.90;;;;;;5038199;28;20041;-63
2022/01/31 04:11:15;;;;;;;8.25;1.10;;;6.70;99.90;;;;;;5038706;28;20033;-61
2022/01/31 04:13:41;;;;;;;14.13;1.80;;;6.70;99.90;;;;;;5040650;28;20116;-61
2022/01/31 04:16:06;;;;;;;21.23;2.65;;;6.70;99.90;;;;;;5038029;28;20030;-61
2022/01/31 04:18:32;;;;;;;13.77;2.65;;;6.70;99.90;;;;;;5040891;28;20112;-61
2022/01/31 04:20:58;;;;;;;10.57;2.15;;;6.70;99.90;;;;;;5038501;28;20091;-61
2022/01/31 04:23:27;;;;;;;6.70;1.25;;;6.70;99.90;;;;;;5039330;28;20480;-61
2022/01/31 04:25:55;;;;;;;18.67;1.42;;;6.80;99.90;;;;;;5039252;28;20107;-61
2022/01/31 04:28:31;;;;;;;25.33;1.63;;;6.80;99.90;;;;;;5039442;28;20030;-64
2022/01/31 04:33:24;;;;;;;12.80;2.95;;;6.80;99.90;;;;;;5039905;28;20508;-62
2022/01/31 04:35:51;;;;;;;8.88;1.77;;;6.80;99.90;;;;;;5039245;28;20037;-60
2022/01/31 04:38:17;;;;;;;7.60;1.27;;;6.80;99.90;;;;;;5039025;28;20033;-61
2022/01/31 04:40:42;;;;;;;12.57;2.33;;;6.80;99.90;;;;;;5039537;28;20120;-62
2022/01/31 04:43:08;;;;;;;12.48;2.58;;;6.80;99.90;;;;;;5044132;28;20108;-62
2022/01/31 04:45:34;;;;;;;9.23;1.65;;;6.70;99.90;;;;;;5037309;28;20068;-62
2022/01/31 04:47:59;;;;;;;22.40;2.40;;;6.70;99.90;;;;;;5037936;28;20025;-61
2022/01/31 04:50:25;;;;;;;8.30;1.80;;;6.70;99.90;;;;;;5039144;28;20108;-63
2022/01/31 04:52:51;;;;;;;16.60;1.65;;;6.70;99.90;;;;;;5038955;28;20094;-62
2022/01/31 04:55:16;;;;;;;16.88;1.90;;;6.80;99.90;;;;;;5039037;28;20378;-63
2022/01/31 04:57:42;;;;;;;14.40;2.72;;;6.80;99.90;;;;;;5040312;28;20035;-62
2022/01/31 05:00:09;;;;;;;9.00;2.17;;;6.90;99.90;;;;;;5041803;28;20084;-61
2022/01/31 05:02:35;;;;;;;11.80;1.70;;;6.90;99.90;;;;;;5044820;28;20021;-63
2022/01/31 05:05:02;;;;;;;9.70;1.23;;;6.80;99.90;;;;;;5041506;28;20444;-61
2022/01/31 05:07:28;;;;;;;3.45;0.30;;;6.40;99.90;;;;;;5044120;28;20087;-61
2022/01/31 05:09:53;;;;;;;15.38;1.63;;;5.90;99.90;;;;;;5042402;28;20607;-60
2022/01/31 05:12:21;;;;;;;8.52;1.15;;;5.60;99.90;;;;;;5043096;28;20072;-63
2022/01/31 05:14:46;;;;;;;11.07;1.40;;;5.40;99.90;;;;;;5043320;28;20060;-61
2022/01/31 05:17:12;;;;;;;15.27;2.25;;;5.30;99.90;;;;;;5042358;28;20060;-61
2022/01/31 05:19:37;;;;;;;12.45;1.05;;;5.30;99.90;;;;;;5043788;28;20033;-63
2022/01/31 05:22:03;;;;;;;8.55;1.45;;;5.20;99.90;;;;;;5041104;28;20037;-61
2022/01/31 05:24:29;;;;;;;10.38;1.88;;;5.20;99.90;;;;;;5044529;28;20078;-61
2022/01/31 05:26:55;;;;;;;14.63;1.88;;;5.20;99.90;;;;;;5041722;28;20041;-62
2022/01/31 05:29:21;;;;;;;14.02;2.80;;;5.30;99.90;;;;;;5043078;28;20039;-62
2022/01/31 05:31:52;;;;;;;22.17;4.45;;;5.30;99.90;;;;;;5043130;28;20499;-61
2022/01/31 05:34:19;;;;;;;16.55;3.03;;;5.40;99.90;;;;;;5042803;28;20413;-61
2022/01/31 05:36:44;;;;;;;12.82;3.13;;;5.40;99.90;;;;;;5040191;28;20040;-61
2022/01/31 05:39:10;;;;;;;24.20;3.38;;;5.50;99.90;;;;;;5040058;28;20041;-61
2022/01/31 05:41:35;;;;;;;25.15;3.22;;;5.50;99.90;;;;;;5042562;28;20059;-62
2022/01/31 05:44:01;;;;;;;20.13;2.75;;;5.60;99.90;;;;;;5040304;28;20057;-61
2022/01/31 05:46:26;;;;;;;17.48;2.88;;;5.70;99.90;;;;;;5040662;28;20042;-61
2022/01/31 05:48:53;;;;;;;32.85;3.58;;;5.70;99.90;;;;;;5042232;28;20033;-61
2022/01/31 05:51:21;;;;;;;10.50;2.00;;;5.80;99.90;;;;;;5039458;28;20025;-61
2022/01/31 05:53:49;;;;;;;17.15;1.75;;;5.80;99.90;;;;;;5035356;28;20125;-61
2022/01/31 05:56:16;;;;;;;18.83;2.22;;;5.90;99.90;;;;;;5038570;28;20060;-63
2022/01/31 05:58:42;;;;;;;17.77;2.80;;;5.90;99.90;;;;;;5042374;28;20059;-61
2022/01/31 06:01:08;;;;;;;18.60;3.25;;;5.90;99.90;;;;;;5041302;28;20033;-63
2022/01/31 06:03:34;;;;;;;16.08;2.55;;;5.90;99.90;;;;;;5043447;28;20044;-61
2022/01/31 06:06:00;;;;;;;13.07;2.03;;;6.00;99.90;;;;;;5040687;28;20392;-61
2022/01/31 06:08:25;;;;;;;13.73;2.97;;;5.90;99.90;;;;;;5046962;28;20396;-61
2022/01/31 06:10:51;;;;;;;11.80;1.85;;;5.90;99.90;;;;;;5051452;28;20433;-61
2022/01/31 06:13:23;;;;;;;22.40;2.95;;;5.90;99.90;;;;;;5048168;28;20039;-61
2022/01/31 06:15:49;;;;;;;20.48;2.60;;;5.80;99.90;;;;;;5050006;28;20485;-61
2022/01/31 06:18:14;;;;;;;30.70;4.53;;;5.80;99.90;;;;;;5054365;28;20044;-62
2022/01/31 06:20:41;;;;;;;21.52;3.47;;;5.70;99.90;;;;;;5049736;28;20106;-61
2022/01/31 06:23:06;;;;;;;8.80;2.05;;;5.70;99.90;;;;;;5051945;28;20082;-60
2022/01/31 06:25:32;;;;;;;12.95;1.85;;;5.70;99.90;;;;;;5053592;28;20416;-61
2022/01/31 06:27:58;;;;;;;23.40;3.33;;;5.70;99.90;;;;;;5052668;28;20067;-62
2022/01/31 06:30:25;;;;;;;14.75;2.38;;;5.70;99.90;;;;;;5053508;28;20094;-62
2022/01/31 06:32:50;;;;;;;15.45;2.50;;;5.70;99.90;;;;;;5053889;28;20040;-61
2022/01/31 06:35:17;;;;;;;18.35;2.08;;;5.70;99.90;;;;;;5055606;28;20041;-61
2022/01/31 06:37:43;;;;;;;18.00;3.47;;;5.60;99.90;;;;;;5053480;28;20136;-61
2022/01/31 06:40:09;;;;;;;27.48;3.03;;;5.60;99.90;;;;;;5053179;28;20428;-61
2022/01/31 06:42:34;;;;;;;17.55;3.45;;;5.60;99.90;;;;;;5052368;28;20037;-61
2022/01/31 06:45:00;;;;;;;15.55;2.90;;;5.70;99.90;;;;;;5048166;28;20661;-62
2022/01/31 06:47:27;;;;;;;20.35;3.13;;;5.70;99.90;;;;;;5049552;28;20465;-63
2022/01/31 06:49:53;;;;;;;16.60;2.78;;;5.70;99.90;;;;;;5050321;28;20029;-62
2022/01/31 06:52:18;;;;;;;22.77;2.40;;;5.70;99.90;;;;;;5051848;28;20029;-60
2022/01/31 06:54:49;;;;;;;17.77;3.50;;;5.70;99.90;;;;;;5052911;28;20407;-61
2022/01/31 06:57:15;;;;;;;;;;;5.70;99.90;;;;;;5051928;28;20061;-61
2022/01/31 06:59:40;;;;;;;19.38;2.20;;;5.70;99.90;;;;;;5051319;28;19955;-62
2022/01/31 07:02:06;;;;;;;12.88;1.63;;;5.60;99.90;;;;;;5051810;28;20052;-61
2022/01/31 07:04:32;;;;;;;19.25;2.45;;;5.60;99.90;;;;;;5049733;28;20082;-60
2022/01/31 07:06:58;;;;;;;28.65;2.72;;;5.70;99.90;;;;;;5051613;28;20036;-61
2022/01/31 07:09:24;;;;;;;22.05;3.08;;;5.60;99.90;;;;;;5052193;28;20037;-63
2022/01/31 07:11:52;;;;;;;16.27;1.30;;;5.60;99.90;;;;;;5052954;28;20025;-61
2022/01/31 07:14:30;;;;;;;15.25;2.55;;;5.70;99.90;;;;;;5051005;28;20052;-60
2022/01/31 07:17:05;;;;;;;12.52;2.00;;;5.70;99.90;;;;;;5049606;28;20448;-61
2022/01/31 07:19:34;;;;;;;14.65;2.60;;;5.60;99.90;;;;;;5050632;23;20061;-69
2022/01/31 07:22:00;;;;;;;14.65;1.92;;;5.60;99.90;;;;;;5032434;28;20485;-69
2022/01/31 07:24:46;;;;;;;16.73;2.20;;;5.60;99.90;;;;;;5024388;28;20041;-68
2022/01/31 07:27:12;;;;;;;17.42;2.45;;;5.60;99.90;;;;;;5027885;28;20112;-65
2022/01/31 07:29:38;;;;;;;15.32;2.25;;;5.60;99.90;;;;;;5028512;28;20029;-69
2022/01/31 07:32:07;;;;;;;42.40;5.97;;;5.60;99.90;;;;;;5033090;28;20112;-68
2022/01/31 07:34:33;;;;;;;25.95;3.83;;;5.60;99.90;;;;;;5031888;28;20029;-69
2022/01/31 07:36:58;;;;;;;21.88;2.78;;;5.60;99.90;;;;;;5028529;28;20033;-69
2022/01/31 07:39:24;;;;;;;25.27;4.32;;;5.60;99.90;;;;;;5028737;28;20120;-69
2022/01/31 07:41:49;;;;;;;14.60;2.08;;;5.60;99.90;;;;;;5032347;28;20083;-69
2022/01/31 07:44:15;;;;;;;18.10;2.47;;;5.70;99.90;;;;;;5030506;28;20040;-69
2022/01/31 07:46:41;;;;;;;20.05;3.58;;;5.80;99.90;;;;;;5028998;28;20791;-69
2022/01/31 07:49:07;;;;;;;20.20;4.65;;;5.80;99.90;;;;;;5024986;23;20091;-64
2022/01/31 07:51:36;;;;;;;18.88;2.83;;;5.80;99.90;;;;;;5005945;28;20125;-65
2022/01/31 07:54:02;;;;;;;19.88;3.67;;;5.80;99.90;;;;;;5012664;28;20045;-65
2022/01/31 07:56:27;;;;;;;22.38;3.13;;;5.80;99.90;;;;;;5010807;28;20030;-64
2022/01/31 07:58:53;;;;;;;21.98;2.53;;;5.80;99.90;;;;;;5010931;28;20099;-64
2022/01/31 08:01:20;;;;;;;20.05;4.13;;;5.80;99.90;;;;;;5011420;28;20038;-65
2022/01/31 08:03:47;;;;;;;25.83;4.88;;;5.80;99.90;;;;;;5009825;28;20057;-64
2022/01/31 08:06:13;;;;;;;28.67;3.95;;;5.80;99.90;;;;;;5006749;28;20780;-63
2022/01/31 08:08:38;;;;;;;22.33;3.63;;;5.90;99.90;;;;;;5009007;28;20045;-65
2022/01/31 08:11:05;;;;;;;24.42;4.28;;;5.90;99.90;;;;;;5007538;28;20026;-65
2022/01/31 08:13:33;;;;;;;29.50;4.10;;;5.90;99.90;;;;;;5010310;28;20037;-64
2022/01/31 08:16:17;;;;;;;33.67;4.70;;;5.90;99.90;;;;;;5011439;28;20033;-64
2022/01/31 08:18:44;;;;;;;29.20;4.43;;;5.90;99.90;;;;;;5009943;28;20076;-63
2022/01/31 08:21:13;;;;;;;31.77;5.82;;;5.90;99.90;;;;;;5009809;28;20403;-65
2022/01/31 08:23:41;;;;;;;17.85;4.60;;;6.00;99.90;;;;;;5020220;28;20026;-64
2022/01/31 08:26:11;;;;;;;20.70;3.88;;;6.00;99.90;;;;;;5009737;28;20100;-64
2022/01/31 08:28:43;;;;;;;28.30;4.95;;;6.00;99.90;;;;;;5013367;28;20049;-64
2022/01/31 08:36:24;;;;;;;28.08;4.57;;;6.00;99.90;;;;;;5012358;28;20038;-64
2022/01/31 08:38:50;;;;;;;33.03;3.92;;;6.00;99.90;;;;;;5008597;28;20039;-64
2022/01/31 08:41:17;;;;;;;23.17;2.47;;;6.00;99.90;;;;;;5010816;28;20040;-65
2022/01/31 08:43:43;;;;;;;25.70;3.35;;;6.00;99.90;;;;;;5012394;28;20038;-64
2022/01/31 08:46:11;;;;;;;22.77;3.50;;;6.00;99.90;;;;;;5010116;28;20038;-66
2022/01/31 08:48:38;;;;;;;21.98;4.07;;;6.00;99.90;;;;;;5008939;28;20037;-64
2022/01/31 08:51:06;;;;;;;30.88;4.57;;;6.10;99.90;;;;;;5010782;28;20030;-64
2022/01/31 08:53:32;;;;;;;23.35;3.40;;;6.00;99.90;;;;;;5007505;28;20034;-64
2022/01/31 08:56:07;;;;;;;24.42;4.30;;;6.00;99.90;;;;;;5012756;28;20038;-65
2022/01/31 08:58:33;;;;;;;18.30;3.17;;;6.00;99.90;;;;;;5008580;28;20046;-64
2022/01/31 09:01:01;;;;;;;26.85;5.32;;;6.00;99.90;;;;;;5011237;28;20488;-63
2022/01/31 09:06:04;;;;;;;24.77;3.38;;;5.90;99.90;;;;;;5009426;28;20037;-65
2022/01/31 09:08:30;;;;;;;24.50;2.95;;;5.90;99.90;;;;;;5008820;28;20022;-63
2022/01/31 09:10:56;;;;;;;33.28;4.15;;;5.90;99.90;;;;;;5010908;28;20034;-64
2022/01/31 09:13:21;;;;;;;18.00;3.53;;;5.90;99.90;;;;;;5009953;28;20113;-64
2022/01/31 09:15:47;;;;;;;35.67;3.65;;;5.90;99.90;;;;;;5011261;28;20037;-63
2022/01/31 09:18:12;;;;;;;39.63;4.28;;;5.90;99.90;;;;;;5009260;28;20486;-64
2022/01/31 09:20:38;;;;;;;24.92;3.95;;;5.90;99.90;;;;;;5008465;28;20022;-64
2022/01/31 09:23:05;;;;;;;22.27;3.45;;;5.90;99.90;;;;;;5006916;28;20041;-64
2022/01/31 09:25:31;;;;;;;30.48;3.08;;;5.90;99.90;;;;;;5005564;28;20037;-64
2022/01/31 09:28:02;;;;;;;21.10;3.83;;;6.00;99.90;;;;;;5009660;28;20128;-63
2022/01/31 09:30:29;;;;;;;36.53;4.50;;;5.90;99.90;;;;;;5006119;28;20038;-64
2022/01/31 09:32:57;;;;;;;30.48;4.43;;;5.90;99.90;;;;;;5008557;28;20034;-64
2022/01/31 09:35:22;;;;;;;28.95;5.50;;;5.90;99.90;;;;;;5008273;28;20034;-70
2022/01/31 09:37:48;;;;;;;47.47;4.57;;;6.00;99.90;;;;;;5009989;28;20041;-65
2022/01/31 09:40:19;;;;;;;28.60;5.47;;;6.00;99.90;;;;;;5009426;28;20065;-64
2022/01/31 09:51:21;;;;;;;39.45;5.13;;;6.10;99.90;;;;;;5011266;28;20056;-63
2022/01/31 09:53:48;;;;;;;38.63;5.13;;;6.20;99.90;;;;;;5014632;28;20046;-64
2022/01/31 09:56:18;;;;;;;46.83;6.70;;;6.30;99.90;;;;;;5014870;28;20061;-65
2022/01/31 09:58:43;;;;;;;31.77;5.03;;;6.40;99.90;;;;;;5010742;28;20041;-65
2022/01/31 10:01:11;;;;;;;43.53;5.88;;;6.40;99.90;;;;;;5012430;28;20044;-65
2022/01/31 10:04:09;;;;;;;38.20;6.50;;;6.40;99.90;;;;;;5011031;28;20030;-65
2022/01/31 10:06:37;;;;;;;25.35;5.75;;;6.40;99.90;;;;;;5009875;28;20132;-65
2022/01/31 10:09:18;;;;;;;30.08;4.45;;;6.40;99.90;;;;;;5011653;28;20068;-65
2022/01/31 10:11:51;;;;;;;29.15;4.82;;;6.40;99.90;;;;;;5005437;28;20034;-64
2022/01/31 10:17:24;;;;;;;39.08;4.82;;;6.40;99.90;;;;;;5010889;28;20161;-62
2022/01/31 10:19:53;;;;;;;37.35;5.95;;;6.40;99.90;;;;;;5009027;28;20112;-67
2022/01/31 10:22:19;;;;;;;43.80;6.68;;;6.30;99.90;;;;;;5010899;28;20390;-65
2022/01/31 10:24:47;;;;;;;27.70;4.47;;;6.30;99.90;;;;;;5007039;28;20026;-66
2022/01/31 10:27:17;;;;;;;39.97;4.40;;;6.40;99.90;;;;;;5008477;28;20406;-65
2022/01/31 10:29:44;;;;;;;40.70;2.97;;;6.40;99.90;;;;;;5007948;28;20041;-65
2022/01/31 10:32:24;;;;;;;25.88;3.17;;;6.50;99.90;;;;;;5005957;28;20281;-65
2022/01/31 10:34:53;;;;;;;21.42;3.80;;;6.40;99.90;;;;;;5008811;28;20029;-66
2022/01/31 10:37:21;;;;;;;19.50;4.38;;;6.40;99.90;;;;;;5008160;28;20040;-65
2022/01/31 10:45:27;;;;;;;21.42;3.63;;;6.30;99.90;;;;;;5010174;28;20255;-66
2022/01/31 10:51:21;;;;;;;25.40;4.80;;;6.20;99.90;;;;;;5005719;28;20400;-66
2022/01/31 10:53:50;;;;;;;22.88;4.97;;;6.10;99.90;;;;;;5010052;28;20497;-65
2022/01/31 10:56:17;;;;;;;37.42;6.15;;;6.10;99.90;;;;;;5007554;28;20132;-65
2022/01/31 10:58:55;;;;;;;26.40;5.10;;;6.00;99.90;;;;;;5009645;28;20038;-66
2022/01/31 11:01:21;;;;;;;27.10;4.75;;;6.00;99.90;;;;;;5006254;28;20080;-65
2022/01/31 11:03:47;;;;;;;23.67;3.50;;;5.90;99.90;;;;;;5008171;28;20026;-65
2022/01/31 11:06:13;;;;;;;36.83;5.55;;;5.90;99.90;;;;;;5007280;28;20080;-64
2022/01/31 11:08:39;;;;;;;34.53;4.72;;;5.90;99.90;;;;;;5007887;28;20061;-64
2022/01/31 11:11:06;;;;;;;26.88;4.30;;;5.90;99.90;;;;;;5006209;28;20871;-65
2022/01/31 11:13:34;;;;;;;38.20;6.72;;;5.90;99.90;;;;;;5006000;28;20036;-66
2022/01/31 11:16:00;;;;;;;40.20;5.95;;;5.90;99.90;;;;;;5007438;28;20332;-64
2022/01/31 11:18:30;;;;;;;41.78;5.80;;;5.90;99.90;;;;;;5005594;28;20792;-66
2022/01/31 11:20:59;;;;;;;29.42;4.63;;;5.90;99.90;;;;;;5007422;28;20045;-66
2022/01/31 11:23:28;;;;;;;29.95;5.65;;;5.90;99.90;;;;;;5006474;28;20052;-65
2022/01/31 11:25:56;;;;;;;40.70;6.25;;;6.00;99.90;;;;;;5007120;28;20382;-63
2022/01/31 11:28:23;;;;;;;32.30;4.80;;;6.00;99.90;;;;;;5008329;28;20087;-67
2022/01/31 11:30:51;;;;;;;35.83;6.35;;;6.00;99.90;;;;;;5007406;28;20033;-66
2022/01/31 11:33:18;;;;;;;46.13;5.85;;;6.00;99.90;;;;;;5007811;28;20128;-64
2022/01/31 11:35:43;;;;;;;26.85;4.57;;;6.00;99.90;;;;;;5007911;28;20406;-64
2022/01/31 11:38:09;;;;;;;31.40;5.05;;;6.00;99.90;;;;;;5005583;28;20037;-65
2022/01/31 11:40:35;;;;;;;26.13;4.20;;;6.00;99.90;;;;;;5005495;28;20038;-65
2022/01/31 11:43:02;;;;;;;29.80;4.38;;;6.00;99.90;;;;;;5007850;28;20507;-65
2022/01/31 11:45:37;;;;;;;26.00;5.22;;;6.00;99.90;;;;;;5007139;28;20026;-66
2022/01/31 11:48:12;;;;;;;28.83;4.93;;;6.00;99.90;;;;;;5003827;28;20046;-66
2022/01/31 11:50:53;;;;;;;35.00;4.72;;;5.90;99.90;;;;;;5005553;28;20367;-65
2022/01/31 11:53:32;;;;;;;27.50;4.38;;;6.00;99.90;;;;;;5006687;28;20033;-66
2022/01/31 11:56:14;;;;;;;38.05;6.15;;;5.90;99.90;;;;;;5007945;28;20038;-65
2022/01/31 11:59:11;;;;;;;38.03;6.10;;;6.00;99.90;;;;;;5008900;28;20038;-65
2022/01/31 12:01:37;;;;;;;42.67;5.57;;;6.10;99.90;;;;;;5002769;28;20465;-65
2022/01/31 12:04:03;;;;;;;34.42;5.70;;;6.10;99.90;;;;;;5001246;28;20124;-65
2022/01/31 12:06:29;;;;;;;38.58;5.25;;;6.00;99.90;;;;;;5001501;28;20129;-67
2022/01/31 12:09:05;;;;;;;41.65;7.15;;;6.00;99.90;;;;;;5007991;28;20165;-64
2022/01/31 12:11:58;;;;;;;28.83;5.10;;;6.00;99.90;;;;;;5005720;28;20045;-65
2022/01/31 12:14:27;;;;;;;36.25;5.28;;;6.10;99.90;;;;;;5008971;28;20022;-65
2022/01/31 12:20:02;;;;;;;31.67;4.80;;;6.10;99.90;;;;;;5005877;28;20030;-65
2022/01/31 12:22:51;;;;;;;27.13;5.55;;;6.10;99.90;;;;;;5007847;28;20061;-66
2022/01/31 12:25:31;;;;;;;36.42;6.50;;;6.10;99.90;;;;;;5007611;28;20045;-66
2022/01/31 12:28:17;;;;;;;36.78;5.72;;;6.20;99.90;;;;;;5005851;28;20048;-65
2022/01/31 12:30:43;;;;;;;41.00;6.40;;;6.10;99.90;;;;;;5007869;28;20387;-65
2022/01/31 12:33:41;;;;;;;39.10;5.18;;;6.10;99.90;;;;;;5008119;28;20056;-64
2022/01/31 12:36:07;;;;;;;34.33;5.65;;;6.10;99.90;;;;;;5010219;28;20065;-65
2022/01/31 12:38:33;;;;;;;35.22;6.30;;;6.10;99.90;;;;;;5008420;28;20058;-64
2022/01/31 12:41:04;;;;;;;44.58;7.00;;;6.20;99.90;;;;;;5013342;28;20382;-65
2022/01/31 12:43:51;;;;;;;42.53;6.80;;;6.20;99.90;;;;;;5014936;28;20500;-65
2022/01/31 12:46:17;;;;;;;38.40;5.10;;;6.20;99.90;;;;;;5009853;28;20048;-66
2022/01/31 12:49:03;;;;;;;33.63;6.97;;;6.20;99.90;;;;;;5006422;28;20053;-65
2022/01/31 12:51:29;;;;;;;35.58;5.10;;;6.30;99.90;;;;;;5012455;28;20049;-66
2022/01/31 12:53:55;;;;;;;47.42;4.65;;;6.40;99.90;;;;;;5008466;28;20034;-65
2022/01/31 12:56:30;;;;;;;38.88;4.15;;;6.40;99.90;;;;;;5007518;28;20030;-65
2022/01/31 12:59:03;;;;;;;46.30;5.85;;;6.40;99.90;;;;;;5007801;28;20041;-65
2022/01/31 13:01:33;;;;;;;32.38;5.40;;;6.40;99.90;;;;;;5007760;28;20093;-65
2022/01/31 13:04:21;;;;;;;37.65;6.25;;;6.40;99.90;;;;;;5008738;28;20053;-65
2022/01/31 13:06:59;;;;;;;37.60;7.93;;;6.40;99.90;;;;;;5008505;28;20041;-65
2022/01/31 13:09:26;;;;;;;35.83;6.20;;;6.40;99.90;;;;;;5005810;28;20129;-65
2022/01/31 13:11:53;;;;;;;25.17;5.57;;;6.50;99.90;;;;;;5006423;28;20528;-65
2022/01/31 13:14:26;;;;;;;43.53;6.63;;;6.50;99.90;;;;;;5006706;28;20080;-65
2022/01/31 13:17:08;;;;;;;48.65;6.20;;;6.40;99.90;;;;;;5009853;28;20552;-67
2022/01/31 13:19:36;;;;;;;34.75;4.72;;;6.30;99.90;;;;;;5009114;28;20026;-65
2022/01/31 13:22:07;;;;;;;26.02;4.82;;;6.30;99.90;;;;;;5013507;28;20034;-64
2022/01/31 13:25:04;;;;;;;32.55;4.03;;;6.30;99.90;;;;;;5010090;28;20045;-65
2022/01/31 13:27:32;;;;;;;33.63;6.65;;;6.30;99.90;;;;;;5002993;28;20029;-66